Hub City, South Dakota
Current Conditions -  °F | °C
As of 11:35 PM on Wednesday 26 Nov 2014 (Local Time) from KYKN Reporting Station
Scattered Clouds Scattered Clouds  
Wind Chill: -2°   Ceiling: Unl
Heat Index: 10°   Visibility: 10mi
Dew Point:   Wind: 8mph
Humidity: 73%   Direction: 310°NW
Pressure: 30.5"   Gusts: NA
Location:  42.8915°N, 96.9263°W
Report Text: KYKN 270535Z AUTO 31007KT 10SM SCT070 M12/M16 A3050 RMK AO1
Loading
Personal Weather Stations






























Interactive Weather Map New forecast layout! Learn more

10-Day Weather Forecast

Advertisements
Track Severe Weather on mobile